Time;durP1;ratioP1;P1;durP2;ratioP2;P2;SDS_P1;SDS_P2;PMS_P1;PMS_P2;Temp;Humidity;BMP_temperature;BMP_pressure;BME280_temperature;BME280_humidity;BME280_pressure;Samples;Min_cycle;Max_cycle;Signal;HPM_P1;HPM_P2
2021/09/29 00:00:34;;;;;;;22.55;18.33;;;14.10;99.90;;;;;;5074101;28;20032;-75
2021/09/29 00:02:59;;;;;;;20.70;18.38;;;14.10;99.90;;;;;;5074201;28;20155;-75
2021/09/29 00:05:25;;;;;;;20.02;17.70;;;14.10;99.90;;;;;;5074150;28;20035;-75
2021/09/29 00:07:50;;;;;;;19.30;17.15;;;14.10;99.90;;;;;;5074053;28;20016;-75
2021/09/29 00:10:16;;;;;;;21.80;18.35;;;14.10;99.90;;;;;;5074725;28;20091;-75
2021/09/29 00:12:42;;;;;;;22.35;18.35;;;14.10;99.90;;;;;;5074049;28;20111;-75
2021/09/29 00:15:13;;;;;;;23.90;17.60;;;14.10;99.90;;;;;;5073942;28;20082;-75
2021/09/29 00:17:39;;;;;;;19.88;17.80;;;14.10;99.90;;;;;;5074149;28;20430;-75
2021/09/29 00:20:06;;;;;;;19.48;17.48;;;14.10;99.90;;;;;;5072910;28;20052;-75
2021/09/29 00:22:32;;;;;;;20.40;18.17;;;14.10;99.90;;;;;;5072405;28;20123;-75
2021/09/29 00:24:57;;;;;;;19.95;17.92;;;14.10;99.90;;;;;;5073937;28;20044;-75
2021/09/29 00:27:23;;;;;;;22.88;19.00;;;14.10;99.90;;;;;;5074008;28;20100;-75
2021/09/29 00:29:51;;;;;;;21.17;18.45;;;14.10;99.90;;;;;;5074031;28;20024;-75
2021/09/29 00:32:18;;;;;;;21.63;19.33;;;14.10;99.90;;;;;;5073510;28;20103;-75
2021/09/29 00:34:44;;;;;;;20.30;18.20;;;14.10;99.90;;;;;;5073704;28;20028;-75
2021/09/29 00:37:10;;;;;;;23.17;19.20;;;14.10;99.90;;;;;;5073936;28;20028;-74
2021/09/29 00:39:36;;;;;;;19.77;17.48;;;14.10;99.90;;;;;;5073816;28;20451;-75
2021/09/29 00:42:03;;;;;;;22.23;19.30;;;14.00;99.90;;;;;;5074028;28;20032;-74
2021/09/29 00:44:29;;;;;;;21.63;19.30;;;14.10;99.90;;;;;;5073981;28;20017;-74
2021/09/29 00:46:55;;;;;;;21.33;19.02;;;14.00;99.90;;;;;;5073729;28;20028;-75
2021/09/29 00:49:21;;;;;;;21.08;17.95;;;14.00;99.90;;;;;;5073475;28;20020;-76
2021/09/29 00:51:46;;;;;;;22.30;19.33;;;14.00;99.90;;;;;;5073307;28;20094;-74
2021/09/29 00:54:12;;;;;;;21.98;18.70;;;14.00;99.90;;;;;;5073845;28;20032;-75
2021/09/29 00:56:37;;;;;;;20.52;18.42;;;14.10;99.90;;;;;;5073203;28;20025;-75
2021/09/29 00:59:04;;;;;;;20.42;18.30;;;14.10;99.90;;;;;;5073615;28;20013;-75
2021/09/29 01:01:31;;;;;;;22.02;19.77;;;14.00;99.90;;;;;;5071826;28;20052;-75
2021/09/29 01:04:00;;;;;;;21.38;19.20;;;14.10;99.90;;;;;;5073164;28;20028;-75
2021/09/29 01:06:37;;;;;;;23.20;19.75;;;14.10;99.90;;;;;;5073052;28;20087;-75
2021/09/29 01:09:13;;;;;;;21.83;19.50;;;14.10;99.90;;;;;;5073240;28;20430;-74
2021/09/29 01:11:43;;;;;;;23.25;20.77;;;14.10;99.90;;;;;;5073327;28;20028;-75
2021/09/29 01:14:18;;;;;;;24.17;20.30;;;14.00;99.90;;;;;;5072986;28;20033;-75
2021/09/29 01:16:47;;;;;;;23.83;21.20;;;14.10;99.90;;;;;;5072820;28;20036;-74
2021/09/29 01:19:37;;;;;;;23.13;20.73;;;14.00;99.90;;;;;;5071788;28;20032;-75
2021/09/29 01:22:35;;;;;;;22.75;19.98;;;14.00;99.90;;;;;;5073277;28;20037;-75
2021/09/29 01:25:04;;;;;;;23.90;21.20;;;14.00;99.90;;;;;;5072344;28;20387;-75
2021/09/29 01:27:31;;;;;;;25.25;20.70;;;14.00;99.90;;;;;;5073369;28;20032;-75
2021/09/29 01:29:58;;;;;;;23.75;21.17;;;14.00;99.90;;;;;;5073121;28;20454;-75
2021/09/29 01:32:24;;;;;;;23.70;21.20;;;14.00;99.90;;;;;;5072834;28;20029;-75
2021/09/29 01:34:50;;;;;;;23.85;20.98;;;14.00;99.90;;;;;;5072180;28;20025;-75
2021/09/29 01:37:17;;;;;;;24.48;20.73;;;14.00;99.90;;;;;;5062805;28;20032;-75
2021/09/29 01:39:43;;;;;;;22.15;19.85;;;14.00;99.90;;;;;;5051554;28;20029;-75
2021/09/29 01:42:09;;;;;;;24.65;22.17;;;14.00;99.90;;;;;;5052793;28;20398;-74
2021/09/29 01:44:34;;;;;;;26.30;22.67;;;13.90;99.90;;;;;;5052846;28;20025;-74
2021/09/29 01:47:01;;;;;;;26.65;23.60;;;13.90;99.90;;;;;;5057951;28;20372;-75
2021/09/29 01:49:46;;;;;;;26.33;23.20;;;13.90;99.90;;;;;;5072628;28;20029;-75
2021/09/29 01:52:12;;;;;;;27.67;23.48;;;13.90;99.90;;;;;;5072701;28;20457;-75
2021/09/29 01:54:44;;;;;;;26.88;23.73;;;13.80;99.90;;;;;;5071520;28;20123;-75
2021/09/29 01:57:10;;;;;;;30.95;24.55;;;13.80;99.90;;;;;;5072966;28;20017;-75
2021/09/29 01:59:36;;;;;;;27.33;24.48;;;13.80;99.90;;;;;;5072570;28;20032;-75
2021/09/29 02:02:02;;;;;;;28.27;24.27;;;13.80;99.90;;;;;;5072670;28;20134;-75
2021/09/29 02:04:28;;;;;;;30.92;25.52;;;13.80;99.90;;;;;;5071373;28;20070;-75
2021/09/29 02:06:57;;;;;;;28.10;24.60;;;13.80;99.90;;;;;;5072962;28;20024;-75
2021/09/29 02:09:24;;;;;;;32.85;24.92;;;13.70;99.90;;;;;;5072669;28;20373;-75
2021/09/29 02:11:51;;;;;;;29.08;25.58;;;13.80;99.90;;;;;;5072926;28;20028;-75
2021/09/29 02:14:18;;;;;;;30.58;24.52;;;13.70;99.90;;;;;;5072818;28;20033;-75
2021/09/29 02:16:45;;;;;;;29.60;24.98;;;13.70;99.90;;;;;;5072562;28;20031;-75
2021/09/29 02:19:11;;;;;;;29.45;25.02;;;13.70;99.90;;;;;;5071232;28;20371;-75
2021/09/29 02:21:38;;;;;;;26.80;23.42;;;13.70;99.90;;;;;;5072464;28;20040;-74
2021/09/29 02:24:05;;;;;;;28.35;24.70;;;13.70;99.90;;;;;;5072675;28;20036;-75
2021/09/29 02:26:30;;;;;;;34.33;27.40;;;13.70;99.90;;;;;;5072964;28;20025;-75
2021/09/29 02:28:56;;;;;;;33.10;27.20;;;13.70;99.90;;;;;;5072569;28;20378;-75
2021/09/29 02:31:22;;;;;;;30.95;25.95;;;13.70;99.90;;;;;;5072637;28;20021;-74
2021/09/29 02:33:48;;;;;;;30.65;26.08;;;13.70;99.90;;;;;;5072909;28;20404;-75
2021/09/29 02:36:13;;;;;;;36.47;26.35;;;13.70;99.90;;;;;;5074117;28;20039;-75
2021/09/29 02:38:41;;;;;;;30.33;24.73;;;13.70;99.90;;;;;;5076001;28;20024;-75
2021/09/29 02:41:07;;;;;;;31.27;26.30;;;13.70;99.90;;;;;;5075625;28;20028;-75
2021/09/29 02:43:33;;;;;;;31.45;26.80;;;13.60;99.90;;;;;;5076418;28;20021;-75
2021/09/29 02:45:59;;;;;;;30.02;26.17;;;13.60;99.90;;;;;;5075716;28;20021;-75
2021/09/29 02:48:25;;;;;;;30.35;26.77;;;13.60;99.90;;;;;;5075740;28;20425;-75
2021/09/29 02:50:50;;;;;;;30.63;26.63;;;13.60;99.90;;;;;;5074412;28;20062;-75
2021/09/29 02:53:16;;;;;;;31.23;26.95;;;13.60;99.90;;;;;;5075541;28;20029;-75
2021/09/29 02:55:41;;;;;;;32.92;26.63;;;13.60;99.90;;;;;;5075667;28;20484;-76
2021/09/29 02:58:09;;;;;;;31.95;26.40;;;13.60;99.90;;;;;;5075562;28;20029;-75
2021/09/29 03:00:34;;;;;;;33.42;26.88;;;13.60;99.90;;;;;;5075730;28;20442;-75
2021/09/29 03:03:00;;;;;;;31.95;26.45;;;13.60;99.90;;;;;;5075548;28;20027;-75
2021/09/29 03:05:25;;;;;;;30.40;25.48;;;13.70;99.90;;;;;;5075804;28;20501;-75
2021/09/29 03:07:51;;;;;;;33.92;27.75;;;13.70;99.90;;;;;;5075358;28;20044;-75
2021/09/29 03:10:17;;;;;;;27.10;24.15;;;13.70;99.90;;;;;;5059038;28;20021;-75
2021/09/29 03:12:42;;;;;;;30.63;25.67;;;13.70;99.90;;;;;;5053989;28;20112;-74
2021/09/29 03:15:08;;;;;;;31.73;25.70;;;13.70;99.90;;;;;;5053826;28;20029;-74
2021/09/29 03:17:34;;;;;;;38.83;27.33;;;13.70;99.90;;;;;;5055369;28;20032;-75
2021/09/29 03:19:59;;;;;;;32.33;26.20;;;13.70;99.90;;;;;;5055462;28;20036;-75
2021/09/29 03:22:25;;;;;;;36.72;26.92;;;13.70;99.90;;;;;;5054785;28;20044;-75
2021/09/29 03:24:51;;;;;;;37.15;29.45;;;13.70;99.90;;;;;;5054895;28;20060;-75
2021/09/29 03:27:16;;;;;;;39.38;27.80;;;13.70;99.90;;;;;;5053769;28;20083;-75
2021/09/29 03:29:42;;;;;;;34.72;26.50;;;13.80;99.90;;;;;;5055217;28;20017;-75
2021/09/29 03:32:08;;;;;;;32.88;25.48;;;13.80;99.90;;;;;;5055142;28;20415;-75
2021/09/29 03:34:33;;;;;;;34.33;27.35;;;13.80;99.90;;;;;;5074038;28;20040;-74
2021/09/29 03:36:59;;;;;;;36.17;26.08;;;13.80;99.90;;;;;;5074920;28;20105;-75
2021/09/29 03:39:24;;;;;;;35.40;26.05;;;13.80;99.90;;;;;;5076283;28;20077;-75
2021/09/29 03:41:50;;;;;;;31.85;25.52;;;13.80;99.90;;;;;;5076661;28;20039;-75
2021/09/29 03:44:15;;;;;;;37.80;26.27;;;13.80;99.90;;;;;;5074792;28;20020;-75
2021/09/29 03:46:42;;;;;;;33.97;25.02;;;13.80;99.90;;;;;;5074290;28;20101;-75
2021/09/29 03:49:07;;;;;;;33.50;23.88;;;13.80;99.90;;;;;;5074623;28;20029;-75
2021/09/29 03:51:33;;;;;;;31.90;24.48;;;13.80;99.90;;;;;;5074691;28;20036;-75
2021/09/29 03:53:59;;;;;;;30.08;23.75;;;13.80;99.90;;;;;;5074604;28;20103;-75
2021/09/29 03:56:24;;;;;;;31.58;24.38;;;13.80;99.90;;;;;;5074366;28;20028;-75
2021/09/29 03:58:50;;;;;;;29.33;22.98;;;13.80;99.90;;;;;;5073103;28;20074;-75
2021/09/29 04:01:16;;;;;;;30.48;23.65;;;13.80;99.90;;;;;;5072944;28;20530;-75
2021/09/29 04:03:42;;;;;;;31.15;23.17;;;13.70;99.90;;;;;;5074363;28;20020;-74
2021/09/29 04:06:08;;;;;;;34.67;23.00;;;13.80;99.90;;;;;;5073995;28;20012;-75
2021/09/29 04:08:33;;;;;;;32.72;23.42;;;13.70;99.90;;;;;;5072819;28;20021;-75
2021/09/29 04:10:59;;;;;;;29.98;23.17;;;13.70;99.90;;;;;;5074191;28;20020;-74
2021/09/29 04:13:25;;;;;;;30.00;23.67;;;13.70;99.90;;;;;;5073221;28;20516;-76
2021/09/29 04:15:50;;;;;;;31.40;24.00;;;13.70;99.90;;;;;;5073469;28;20112;-76
2021/09/29 04:18:16;;;;;;;31.98;22.67;;;13.70;99.90;;;;;;5073171;28;20099;-76
2021/09/29 04:20:42;;;;;;;29.17;21.35;;;13.70;99.90;;;;;;5073540;28;20050;-77
2021/09/29 04:23:08;;;;;;;30.58;21.40;;;13.70;99.90;;;;;;5073493;28;20040;-78
2021/09/29 04:25:35;;;;;;;27.73;20.92;;;13.70;99.90;;;;;;5073632;28;20052;-77
2021/09/29 04:28:01;;;;;;;29.67;19.67;;;13.70;99.90;;;;;;5072125;28;20077;-78
2021/09/29 04:30:27;;;;;;;25.55;18.13;;;13.70;99.90;;;;;;5073538;28;20127;-74
2021/09/29 04:32:54;;;;;;;26.95;18.15;;;13.70;99.90;;;;;;5077478;28;20043;-78
2021/09/29 04:35:20;;;;;;;30.45;19.05;;;13.80;99.90;;;;;;5081704;28;20354;-77
2021/09/29 04:37:45;;;;;;;26.48;18.60;;;13.80;99.90;;;;;;5074097;28;20048;-77
2021/09/29 04:40:11;;;;;;;25.17;17.13;;;13.80;99.90;;;;;;5073797;28;20024;-78
2021/09/29 04:42:37;;;;;;;25.20;18.27;;;13.80;99.90;;;;;;5073604;28;20032;-77
2021/09/29 04:45:03;;;;;;;24.73;18.23;;;13.80;99.90;;;;;;5073427;28;20025;-77
2021/09/29 04:47:28;;;;;;;24.77;18.52;;;13.80;99.90;;;;;;5073406;28;20468;-75
2021/09/29 04:49:54;;;;;;;23.02;17.52;;;13.80;99.90;;;;;;5072634;28;20098;-75
2021/09/29 04:52:20;;;;;;;23.65;18.42;;;13.80;99.90;;;;;;5072657;28;20020;-76
2021/09/29 04:54:46;;;;;;;26.67;17.55;;;13.70;99.90;;;;;;5072553;28;20036;-75
2021/09/29 04:57:11;;;;;;;26.13;18.35;;;13.80;99.90;;;;;;5072509;28;20090;-75
2021/09/29 04:59:37;;;;;;;25.98;18.55;;;13.70;99.90;;;;;;5072613;28;20043;-75
2021/09/29 05:02:09;;;;;;;26.55;19.85;;;13.70;99.90;;;;;;5072619;28;20096;-75
2021/09/29 05:04:35;;;;;;;27.35;18.05;;;13.70;99.90;;;;;;5071653;28;20493;-75
2021/09/29 05:07:03;;;;;;;27.20;18.50;;;13.70;99.90;;;;;;5072056;28;20060;-75
2021/09/29 05:09:28;;;;;;;27.20;18.23;;;13.70;99.90;;;;;;5072365;28;20077;-75
2021/09/29 05:12:03;;;;;;;28.20;19.73;;;13.70;99.90;;;;;;5071177;28;20412;-75
2021/09/29 05:14:29;;;;;;;;;;;13.70;99.90;;;;;;5073214;28;20025;-76
2021/09/29 05:16:55;;;;;;;26.63;18.67;;;13.70;99.90;;;;;;5072748;28;19908;-76
2021/09/29 05:19:20;;;;;;;29.52;19.02;;;13.70;99.90;;;;;;5072376;28;20070;-75
2021/09/29 05:21:46;;;;;;;27.05;19.45;;;13.70;99.90;;;;;;5069358;28;20049;-76
2021/09/29 05:24:11;;;;;;;25.88;19.00;;;13.70;99.90;;;;;;5072206;28;20111;-76
2021/09/29 05:26:37;;;;;;;25.50;17.92;;;13.70;99.90;;;;;;5072411;28;20093;-75
2021/09/29 05:29:06;;;;;;;24.95;18.63;;;13.70;99.90;;;;;;5072229;28;20078;-75
2021/09/29 05:31:31;;;;;;;26.70;17.00;;;13.70;99.90;;;;;;5068722;28;20366;-75
2021/09/29 05:33:57;;;;;;;21.58;16.48;;;13.70;99.90;;;;;;5073231;28;20154;-79
2021/09/29 05:36:22;;;;;;;23.80;15.60;;;13.70;99.90;;;;;;5072454;28;20146;-79
2021/09/29 05:38:48;;;;;;;20.25;15.35;;;13.60;99.90;;;;;;5070473;28;20078;-79
2021/09/29 05:41:14;;;;;;;21.35;15.52;;;13.60;99.90;;;;;;5070707;28;20520;-73
2021/09/29 05:43:40;;;;;;;19.73;14.48;;;13.70;99.90;;;;;;5068851;28;20035;-73
2021/09/29 05:46:05;;;;;;;18.80;13.30;;;13.70;99.90;;;;;;5070428;28;20024;-79
2021/09/29 05:48:31;;;;;;;21.60;14.60;;;13.70;99.90;;;;;;5069766;28;20139;-79
2021/09/29 05:50:59;;;;;;;18.83;14.07;;;13.70;99.90;;;;;;5069099;28;20025;-79
2021/09/29 05:53:24;;;;;;;18.52;14.48;;;13.70;99.90;;;;;;5071469;28;20040;-79
2021/09/29 05:55:50;;;;;;;17.23;13.27;;;13.70;99.90;;;;;;5072824;28;20029;-79
2021/09/29 05:58:16;;;;;;;18.67;13.70;;;13.70;99.90;;;;;;5073224;28;20031;-79
2021/09/29 06:00:41;;;;;;;16.95;12.15;;;13.70;99.90;;;;;;5051150;28;20457;-77
2021/09/29 06:03:07;;;;;;;16.80;11.90;;;13.70;99.90;;;;;;5052772;28;20373;-77
2021/09/29 06:05:33;;;;;;;16.50;11.57;;;13.70;99.90;;;;;;5068414;28;20028;-77
2021/09/29 06:08:01;;;;;;;14.90;10.25;;;13.70;99.90;;;;;;5072714;28;20021;-77
2021/09/29 06:10:26;;;;;;;12.35;9.93;;;13.80;99.90;;;;;;5073436;28;20052;-77
2021/09/29 06:12:52;;;;;;;12.57;8.77;;;13.70;99.90;;;;;;5063748;28;20476;-78
2021/09/29 06:15:21;;;;;;;11.50;8.57;;;13.80;99.90;;;;;;5064948;28;20074;-77
2021/09/29 06:17:55;;;;;;;11.55;8.80;;;13.80;99.90;;;;;;5071052;28;20043;-78
2021/09/29 06:20:21;;;;;;;9.30;7.60;;;13.80;99.90;;;;;;5071193;28;20123;-78
2021/09/29 06:22:47;;;;;;;9.75;7.20;;;13.80;99.90;;;;;;5069817;28;20131;-78
2021/09/29 06:25:17;;;;;;;12.07;7.13;;;13.80;99.90;;;;;;5083397;28;20048;-86
2021/09/29 06:27:43;;;;;;;10.80;7.63;;;13.70;99.90;;;;;;5065935;28;20511;-75
2021/09/29 06:30:10;;;;;;;10.38;6.10;;;13.80;99.90;;;;;;5055162;28;20029;-75
2021/09/29 06:32:35;;;;;;;9.07;6.70;;;13.80;99.90;;;;;;5064175;28;20035;-74
2021/09/29 06:35:01;;;;;;;9.90;5.85;;;13.80;99.90;;;;;;5058475;28;20025;-74
2021/09/29 06:37:26;;;;;;;7.63;5.25;;;13.80;99.90;;;;;;5064906;28;20055;-74
2021/09/29 06:39:52;;;;;;;11.95;6.22;;;13.80;99.90;;;;;;5069752;28;20056;-74
2021/09/29 06:42:18;;;;;;;7.05;5.40;;;13.80;99.90;;;;;;5070296;28;20032;-74
2021/09/29 06:44:43;;;;;;;8.93;5.47;;;13.80;99.90;;;;;;5070934;28;20028;-74
2021/09/29 06:47:09;;;;;;;8.13;4.95;;;13.80;99.90;;;;;;5064885;28;20028;-77
2021/09/29 06:49:41;;;;;;;7.47;4.63;;;13.80;99.90;;;;;;5079004;28;20463;-77
2021/09/29 06:52:06;;;;;;;7.10;4.60;;;13.80;99.90;;;;;;5054729;28;20075;-77
2021/09/29 06:54:32;;;;;;;5.82;3.65;;;13.80;99.90;;;;;;5058152;28;20033;-77
2021/09/29 06:56:57;;;;;;;5.45;4.05;;;13.80;99.90;;;;;;5055901;28;20079;-76
2021/09/29 06:59:23;;;;;;;6.93;3.80;;;13.80;99.90;;;;;;5055001;28;20040;-78
2021/09/29 07:01:49;;;;;;;6.43;4.03;;;13.80;99.90;;;;;;5064252;28;20028;-74
2021/09/29 07:04:14;;;;;;;4.93;3.10;;;13.90;99.90;;;;;;5069526;28;20032;-74
2021/09/29 07:06:40;;;;;;;7.97;3.10;;;13.90;99.90;;;;;;5069195;28;20033;-78
2021/09/29 07:09:05;;;;;;;10.30;3.03;;;13.90;99.90;;;;;;5069248;28;20092;-78
2021/09/29 07:11:31;;;;;;;5.40;2.42;;;14.00;99.90;;;;;;5069608;28;20071;-74
2021/09/29 07:13:57;;;;;;;4.50;2.25;;;14.00;99.90;;;;;;5068932;28;20413;-74
2021/09/29 07:16:25;;;;;;;4.00;2.17;;;14.10;99.90;;;;;;5066667;28;20036;-78
2021/09/29 07:18:51;;;;;;;4.50;2.42;;;14.10;99.90;;;;;;5068263;28;20031;-78
2021/09/29 07:21:16;;;;;;;8.60;2.28;;;14.10;99.90;;;;;;5068232;28;20388;-77
2021/09/29 07:23:42;;;;;;;6.20;2.08;;;14.20;99.90;;;;;;5067159;28;20048;-78
2021/09/29 07:26:08;;;;;;;5.45;2.13;;;14.30;99.90;;;;;;5064693;28;20465;-77
2021/09/29 07:28:34;;;;;;;3.88;1.90;;;14.30;99.90;;;;;;5052835;28;20033;-77
2021/09/29 07:30:59;;;;;;;6.53;1.90;;;14.30;99.90;;;;;;5058316;28;20036;-82
2021/09/29 07:33:25;;;;;;;8.63;1.98;;;14.30;99.90;;;;;;5051385;28;20044;-83
2021/09/29 07:35:50;;;;;;;5.47;1.95;;;14.30;99.90;;;;;;5049571;28;20101;-77
2021/09/29 07:38:16;;;;;;;7.55;1.85;;;14.40;99.90;;;;;;5051977;28;20049;-77
2021/09/29 07:40:42;;;;;;;9.90;1.77;;;14.40;99.90;;;;;;5061127;28;20024;-77
2021/09/29 07:43:08;;;;;;;5.63;1.98;;;14.40;99.90;;;;;;5068394;28;20486;-78
2021/09/29 07:45:34;;;;;;;5.03;1.83;;;14.50;99.90;;;;;;5068622;28;20497;-77
2021/09/29 07:47:59;;;;;;;3.67;1.73;;;14.50;99.90;;;;;;5068161;28;20059;-78
2021/09/29 07:50:25;;;;;;;4.68;1.83;;;14.50;99.90;;;;;;5068360;28;20017;-79
2021/09/29 07:52:51;;;;;;;3.88;1.50;;;14.50;99.90;;;;;;5068395;28;20496;-78
2021/09/29 07:55:18;;;;;;;8.80;1.83;;;14.60;99.90;;;;;;5068453;28;20056;-79
2021/09/29 07:57:46;;;;;;;6.03;2.33;;;14.70;99.90;;;;;;5067657;28;20047;-79
2021/09/29 08:00:14;;;;;;;6.15;1.60;;;14.60;99.90;;;;;;5068054;28;20482;-79
2021/09/29 08:02:41;;;;;;;5.53;1.63;;;14.70;99.90;;;;;;5066875;28;20024;-78
2021/09/29 08:05:06;;;;;;;5.43;1.50;;;14.60;99.90;;;;;;5068070;28;20021;-78
2021/09/29 08:07:32;;;;;;;6.03;1.60;;;14.70;99.90;;;;;;5067875;28;20043;-78
2021/09/29 08:09:58;;;;;;;4.82;1.60;;;14.70;99.90;;;;;;5068032;28;20063;-79
2021/09/29 08:12:23;;;;;;;4.10;1.83;;;14.80;99.90;;;;;;5067366;28;20052;-74
2021/09/29 08:14:49;;;;;;;3.08;1.40;;;14.80;99.90;;;;;;5069850;28;20051;-75
2021/09/29 08:17:15;;;;;;;5.95;1.50;;;14.70;99.90;;;;;;5069934;28;20051;-75
2021/09/29 08:19:40;;;;;;;4.50;1.60;;;14.80;99.90;;;;;;5069681;28;20106;-74
2021/09/29 08:22:09;;;;;;;5.10;1.73;;;14.80;99.90;;;;;;5069357;28;20128;-74
2021/09/29 08:25:02;;;;;;;3.13;1.58;;;14.90;99.90;;;;;;5060824;28;20055;-77
2021/09/29 08:30:16;;;;;;;2.42;1.40;;;14.90;99.90;;;;;;5071097;28;20467;-75
2021/09/29 08:38:09;;;;;;;5.03;1.48;;;15.40;99.90;;;;;;5065145;28;20039;-78
2021/09/29 08:45:59;;;;;;;4.05;1.42;;;16.30;99.90;;;;;;5059995;28;20035;-78
2021/09/29 08:48:40;;;;;;;6.65;1.50;;;16.40;99.90;;;;;;5050119;28;20099;-79
2021/09/29 09:15:22;;;;;;;3.85;1.20;;;16.00;99.90;;;;;;5066044;28;20543;-78
2021/09/29 09:17:47;;;;;;;5.55;1.42;;;16.00;99.90;;;;;;5048375;28;20409;-77
2021/09/29 09:20:20;;;;;;;3.63;1.13;;;16.00;99.90;;;;;;5061191;28;20090;-75
2021/09/29 09:22:50;;;;;;;5.88;1.40;;;15.90;99.90;;;;;;5072397;28;20123;-76
2021/09/29 09:25:16;;;;;;;3.55;1.10;;;15.80;99.90;;;;;;5072947;28;20024;-77
2021/09/29 09:27:47;;;;;;;15.30;1.98;;;15.80;99.90;;;;;;5068000;28;20020;-79
2021/09/29 09:30:30;;;;;;;2.35;1.00;;;15.70;99.90;;;;;;5066313;28;20021;-79
2021/09/29 09:32:57;;;;;;;1.98;1.20;;;15.70;99.90;;;;;;5064736;28;20056;-76
2021/09/29 09:35:24;;;;;;;5.35;1.73;;;15.70;99.90;;;;;;5060892;28;20148;-75
2021/09/29 09:38:01;;;;;;;3.30;1.27;;;15.80;99.90;;;;;;5056751;28;20017;-74
2021/09/29 09:40:30;;;;;;;6.55;1.73;;;15.90;99.90;;;;;;5063972;28;20040;-73
2021/09/29 09:42:57;;;;;;;2.90;1.08;;;15.90;99.90;;;;;;5069090;28;20020;-74
2021/09/29 09:45:44;;;;;;;3.15;1.30;;;15.90;99.90;;;;;;5084241;28;20028;-76
2021/09/29 09:48:22;;;;;;;4.82;1.17;;;16.00;99.90;;;;;;5076796;28;20024;-77
2021/09/29 09:51:04;;;;;;;3.50;1.42;;;16.00;99.90;;;;;;5077519;28;20016;-77
2021/09/29 09:53:31;;;;;;;4.65;1.00;;;16.00;99.90;;;;;;5076846;28;20016;-77
2021/09/29 09:55:56;;;;;;;2.97;1.20;;;16.00;99.90;;;;;;5076673;28;20017;-78
2021/09/29 09:58:22;;;;;;;3.30;1.13;;;16.10;99.90;;;;;;5072055;28;20033;-75
2021/09/29 10:00:48;;;;;;;3.40;1.27;;;16.10;99.90;;;;;;5071541;28;20450;-75
2021/09/29 10:03:15;;;;;;;3.78;1.42;;;16.10;99.90;;;;;;5071861;28;20024;-76
2021/09/29 10:05:48;;;;;;;7.07;1.20;;;16.20;99.90;;;;;;5071559;28;20070;-75
2021/09/29 10:08:16;;;;;;;3.50;1.10;;;16.20;99.90;;;;;;5070411;28;20484;-75
2021/09/29 10:27:11;;;;;;;4.47;1.45;;;16.50;99.90;;;;;;5064260;28;20137;-75
2021/09/29 10:29:42;;;;;;;2.92;1.50;;;17.00;99.90;;;;;;5059356;28;20468;-75
2021/09/29 10:32:32;;;;;;;4.90;1.58;;;17.40;99.90;;;;;;5070885;28;20024;-74
2021/09/29 10:35:01;;;;;;;3.67;1.25;;;17.70;99.90;;;;;;5066501;28;20052;-75
2021/09/29 10:40:17;;;;;;;1.90;1.10;;;17.80;99.90;;;;;;5069880;28;20064;-80
2021/09/29 10:43:18;;;;;;;3.63;1.13;;;18.10;99.90;;;;;;5075430;28;20031;-78
2021/09/29 10:45:52;;;;;;;2.80;1.30;;;18.10;99.90;;;;;;5076102;28;20437;-76
2021/09/29 11:07:26;;;;;;;4.78;1.50;;;18.40;99.90;;;;;;5072617;28;20029;-75
2021/09/29 11:10:20;;;;;;;2.72;1.35;;;18.80;99.90;;;;;;5073552;28;20108;-76
2021/09/29 11:32:20;;;;;;;6.00;1.13;;;19.30;99.90;;;;;;5074912;28;19927;-77
2021/09/29 11:34:45;;;;;;;4.53;1.20;;;19.60;99.90;;;;;;5070922;28;20044;-75
2021/09/29 12:08:06;;;;;;;2.88;1.23;;;20.20;99.90;;;;;;5056868;28;20023;-82
2021/09/29 12:10:34;;;;;;;4.05;1.00;;;20.10;99.90;;;;;;5069716;28;20025;-82
2021/09/29 12:13:04;;;;;;;3.45;1.10;;;20.10;99.90;;;;;;5071259;28;20059;-82
2021/09/29 12:15:30;;;;;;;4.75;1.23;;;19.90;99.90;;;;;;5071847;28;20338;-77
2021/09/29 12:17:57;;;;;;;3.58;1.38;;;19.90;99.90;;;;;;5073764;28;20028;-76
2021/09/29 12:20:27;;;;;;;1.60;0.80;;;19.50;99.90;;;;;;5070727;28;20480;-77
2021/09/29 12:23:01;;;;;;;3.47;1.10;;;19.30;99.90;;;;;;5057279;28;20182;-77
2021/09/29 12:25:43;;;;;;;3.25;1.10;;;19.20;99.90;;;;;;5071104;28;20063;-76
2021/09/29 12:36:14;;;;;;;3.95;1.60;;;18.60;99.90;;;;;;5074074;28;20027;-78
2021/09/29 12:38:41;;;;;;;3.03;1.30;;;18.50;99.90;;;;;;5073947;28;20016;-78
2021/09/29 12:41:07;;;;;;;4.10;1.10;;;18.50;99.90;;;;;;5072703;28;20021;-76
2021/09/29 12:43:33;;;;;;;3.17;1.20;;;18.40;99.90;;;;;;5070928;28;20075;-77
2021/09/29 12:45:58;;;;;;;3.88;1.33;;;18.30;99.90;;;;;;5071026;28;20473;-77
2021/09/29 12:48:27;;;;;;;4.13;1.35;;;18.20;99.90;;;;;;5071250;28;20078;-76
2021/09/29 12:51:03;;;;;;;3.40;1.38;;;18.20;99.90;;;;;;5070707;28;20083;-76
2021/09/29 12:58:27;;;;;;;3.13;1.38;;;18.40;99.90;;;;;;5070396;28;20380;-76
2021/09/29 13:00:53;;;;;;;4.25;1.60;;;18.40;99.90;;;;;;5069755;28;20078;-76
2021/09/29 13:03:19;;;;;;;4.22;1.50;;;18.40;99.90;;;;;;5069057;28;20074;-76
2021/09/29 13:05:45;;;;;;;3.72;1.52;;;18.40;99.90;;;;;;5070509;28;20032;-76
2021/09/29 13:08:10;;;;;;;2.03;1.00;;;18.40;99.90;;;;;;5070663;28;20523;-75
2021/09/29 13:10:37;;;;;;;3.38;1.30;;;18.30;99.90;;;;;;5072080;28;20021;-79
2021/09/29 13:13:02;;;;;;;4.05;1.30;;;18.30;99.90;;;;;;5071306;28;20055;-86
2021/09/29 13:15:28;;;;;;;2.30;1.10;;;18.40;99.90;;;;;;5071536;28;20429;-80
2021/09/29 13:17:55;;;;;;;3.72;2.10;;;18.40;99.90;;;;;;5072201;28;20068;-75
2021/09/29 13:20:23;;;;;;;5.28;1.73;;;18.40;99.90;;;;;;5069963;28;20028;-75
2021/09/29 13:22:56;;;;;;;1.95;1.10;;;18.40;99.90;;;;;;5062395;28;20178;-78
2021/09/29 13:26:01;;;;;;;5.32;1.20;;;18.40;99.90;;;;;;5067033;28;20744;-80
2021/09/29 13:38:49;;;;;;;2.80;1.27;;;18.30;99.90;;;;;;5059225;28;20412;-80
2021/09/29 13:41:15;;;;;;;2.35;1.30;;;18.30;99.90;;;;;;5066732;28;20040;-80
2021/09/29 13:43:42;;;;;;;1.63;1.10;;;18.30;99.90;;;;;;5067502;28;20530;-80
2021/09/29 13:46:08;;;;;;;5.07;1.73;;;18.20;99.90;;;;;;5068027;28;20024;-79
2021/09/29 13:48:34;;;;;;;4.47;1.27;;;18.20;99.90;;;;;;5067483;28;20021;-79
2021/09/29 13:51:00;;;;;;;6.38;1.30;;;18.10;99.90;;;;;;5068277;28;20036;-79
2021/09/29 13:53:27;;;;;;;4.15;1.25;;;18.10;99.90;;;;;;5067298;28;20375;-79
2021/09/29 13:55:54;;;;;;;5.65;1.20;;;18.20;99.90;;;;;;5067577;28;20094;-79
2021/09/29 14:03:46;;;;;;;2.15;1.10;;;18.10;99.90;;;;;;5066709;28;20039;-75
2021/09/29 14:30:46;;;;;;;4.00;1.23;;;18.10;99.90;;;;;;5066487;28;20031;-75
2021/09/29 14:33:22;;;;;;;3.47;1.23;;;18.20;99.90;;;;;;5068279;28;20377;-75
2021/09/29 14:35:48;;;;;;;7.13;1.08;;;18.20;99.90;;;;;;5070555;28;20031;-75
2021/09/29 14:38:13;;;;;;;2.58;1.50;;;18.30;99.90;;;;;;5069909;28;20431;-75
2021/09/29 14:40:39;;;;;;;4.00;1.25;;;18.30;99.90;;;;;;5074627;28;20074;-76
2021/09/29 14:43:04;;;;;;;4.55;1.73;;;18.30;99.90;;;;;;5075178;28;20028;-76
2021/09/29 14:45:31;;;;;;;3.00;1.20;;;18.30;99.90;;;;;;5075649;28;20074;-76
2021/09/29 14:47:56;;;;;;;3.03;1.20;;;18.40;99.90;;;;;;5075615;28;20433;-76
2021/09/29 14:50:28;;;;;;;5.70;1.30;;;18.40;99.90;;;;;;5070402;28;20031;-78
2021/09/29 14:52:57;;;;;;;5.55;1.08;;;18.40;99.90;;;;;;5070137;28;20116;-79
2021/09/29 14:55:23;;;;;;;3.63;1.48;;;18.40;99.90;;;;;;5070531;28;20028;-79
2021/09/29 14:57:49;;;;;;;6.28;1.30;;;18.40;99.90;;;;;;5071433;28;20020;-79
2021/09/29 15:00:15;;;;;;;5.22;1.25;;;18.50;99.90;;;;;;5070705;28;20033;-79
2021/09/29 15:02:41;;;;;;;3.33;1.15;;;18.60;99.90;;;;;;5071112;28;20073;-79
2021/09/29 15:05:07;;;;;;;4.50;1.35;;;18.60;99.90;;;;;;5071157;28;20423;-79
2021/09/29 15:07:32;;;;;;;3.42;1.38;;;18.60;99.90;;;;;;5073362;28;20024;-77
2021/09/29 15:09:58;;;;;;;4.45;1.33;;;18.60;99.90;;;;;;5074088;28;20451;-76
2021/09/29 15:12:23;;;;;;;4.18;1.20;;;18.50;99.90;;;;;;5069924;28;20210;-76
2021/09/29 15:15:02;;;;;;;1.35;0.80;;;18.40;99.90;;;;;;5070543;28;20027;-76
2021/09/29 15:17:40;;;;;;;3.25;1.30;;;18.40;99.90;;;;;;5070106;28;20461;-76
2021/09/29 15:31:07;;;;;;;4.13;1.38;;;18.20;99.90;;;;;;5071921;28;20031;-81
2021/09/29 15:47:21;;;;;;;3.88;1.00;;;18.20;99.90;;;;;;5072005;28;20035;-80
2021/09/29 15:50:01;;;;;;;2.45;1.20;;;18.20;99.90;;;;;;5068987;28;20116;-80
2021/09/29 15:52:47;;;;;;;3.13;1.20;;;18.20;99.90;;;;;;5068229;28;20036;-86
2021/09/29 16:03:06;;;;;;;3.47;1.25;;;17.90;99.90;;;;;;5069640;28;20028;-75
2021/09/29 16:08:25;;;;;;;2.53;1.10;;;17.80;99.90;;;;;;5068888;28;20017;-70
2021/09/29 16:13:40;;;;;;;1.83;1.00;;;17.60;99.90;;;;;;5068786;28;20039;-71
2021/09/29 16:32:09;;;;;;;6.32;1.42;;;16.80;99.90;;;;;;5068147;28;20120;-76
2021/09/29 16:34:45;;;;;;;2.35;1.08;;;16.60;99.90;;;;;;5067318;28;20039;-75